sensor_id;sensor_type;location;lat;lon;timestamp;pressure;altitude;pressure_sealevel;temperature
49593;BMP280;35499;51.482;4.264;2024-01-16T00:00:04;101018.06;;;1.97
49593;BMP280;35499;51.482;4.264;2024-01-16T00:02:30;101021.50;;;1.99
49593;BMP280;35499;51.482;4.264;2024-01-16T00:04:55;101017.25;;;1.99
49593;BMP280;35499;51.482;4.264;2024-01-16T00:07:20;101017.25;;;1.99
49593;BMP280;35499;51.482;4.264;2024-01-16T00:09:46;101013.91;;;2.00
49593;BMP280;35499;51.482;4.264;2024-01-16T00:12:12;101022.31;;;1.99
49593;BMP280;35499;51.482;4.264;2024-01-16T00:14:37;101015.56;;;2.00
49593;BMP280;35499;51.482;4.264;2024-01-16T00:17:03;101015.63;;;2.01
49593;BMP280;35499;51.482;4.264;2024-01-16T00:19:28;101004.72;;;2.04
49593;BMP280;35499;51.482;4.264;2024-01-16T00:21:54;101010.66;;;2.06
49593;BMP280;35499;51.482;4.264;2024-01-16T00:24:19;101003.91;;;2.06
49593;BMP280;35499;51.482;4.264;2024-01-16T00:26:45;101003.09;;;2.07
49593;BMP280;35499;51.482;4.264;2024-01-16T00:29:11;101007.31;;;2.07
49593;BMP280;35499;51.482;4.264;2024-01-16T00:31:38;101001.41;;;2.08
49593;BMP280;35499;51.482;4.264;2024-01-16T00:34:04;101010.72;;;2.09
49593;BMP280;35499;51.482;4.264;2024-01-16T00:36:29;101016.66;;;2.11
49593;BMP280;35499;51.482;4.264;2024-01-16T00:38:55;101011.66;;;2.12
49593;BMP280;35499;51.482;4.264;2024-01-16T00:41:21;101004.09;;;2.14
49593;BMP280;35499;51.482;4.264;2024-01-16T00:43:46;101010.00;;;2.14
49593;BMP280;35499;51.482;4.264;2024-01-16T00:46:11;101009.25;;;2.18
49593;BMP280;35499;51.482;4.264;2024-01-16T00:48:37;101006.72;;;2.19
49593;BMP280;35499;51.482;4.264;2024-01-16T00:51:02;101018.63;;;2.22
49593;BMP280;35499;51.482;4.264;2024-01-16T00:53:27;101018.66;;;2.25
49593;BMP280;35499;51.482;4.264;2024-01-16T00:55:53;101016.22;;;2.28
49593;BMP280;35499;51.482;4.264;2024-01-16T00:58:21;101021.41;;;2.33
49593;BMP280;35499;51.482;4.264;2024-01-16T01:00:46;101020.66;;;2.37
49593;BMP280;35499;51.482;4.264;2024-01-16T01:03:12;101031.66;;;2.39
49593;BMP280;35499;51.482;4.264;2024-01-16T01:05:37;101024.94;;;2.41
49593;BMP280;35499;51.482;4.264;2024-01-16T01:08:03;101025.84;;;2.43
49593;BMP280;35499;51.482;4.264;2024-01-16T01:10:28;101025.00;;;2.44
49593;BMP280;35499;51.482;4.264;2024-01-16T01:12:53;101028.50;;;2.49
49593;BMP280;35499;51.482;4.264;2024-01-16T01:15:20;101032.72;;;2.50
49593;BMP280;35499;51.482;4.264;2024-01-16T01:17:47;101031.06;;;2.50
49593;BMP280;35499;51.482;4.264;2024-01-16T01:20:13;101037.84;;;2.51
49593;BMP280;35499;51.482;4.264;2024-01-16T01:22:38;101035.34;;;2.53
49593;BMP280;35499;51.482;4.264;2024-01-16T01:25:04;101043.81;;;2.53
49593;BMP280;35499;51.482;4.264;2024-01-16T01:27:29;101037.06;;;2.54
49593;BMP280;35499;51.482;4.264;2024-01-16T01:29:55;101036.19;;;2.53
49593;BMP280;35499;51.482;4.264;2024-01-16T01:32:21;101033.63;;;2.52
49593;BMP280;35499;51.482;4.264;2024-01-16T01:34:47;101040.41;;;2.53
49593;BMP280;35499;51.482;4.264;2024-01-16T01:37:12;101042.13;;;2.54
49593;BMP280;35499;51.482;4.264;2024-01-16T01:39:38;101039.59;;;2.54
49593;BMP280;35499;51.482;4.264;2024-01-16T01:42:03;101042.13;;;2.54
49593;BMP280;35499;51.482;4.264;2024-01-16T01:44:29;101037.88;;;2.54
49593;BMP280;35499;51.482;4.264;2024-01-16T01:46:54;101042.13;;;2.54
49593;BMP280;35499;51.482;4.264;2024-01-16T01:49:21;101040.38;;;2.51
49593;BMP280;35499;51.482;4.264;2024-01-16T01:51:48;101039.50;;;2.51
49593;BMP280;35499;51.482;4.264;2024-01-16T01:54:14;101037.78;;;2.49
49593;BMP280;35499;51.482;4.264;2024-01-16T01:56:44;101039.47;;;2.48
49593;BMP280;35499;51.482;4.264;2024-01-16T01:59:09;101033.50;;;2.46
49593;BMP280;35499;51.482;4.264;2024-01-16T02:01:35;101038.56;;;2.46
49593;BMP280;35499;51.482;4.264;2024-01-16T02:04:01;101038.56;;;2.46
49593;BMP280;35499;51.482;4.264;2024-01-16T02:06:27;101032.59;;;2.44
49593;BMP280;35499;51.482;4.264;2024-01-16T02:08:52;101035.13;;;2.44
49593;BMP280;35499;51.482;4.264;2024-01-16T02:11:18;101039.34;;;2.42
49593;BMP280;35499;51.482;4.264;2024-01-16T02:13:43;101030.84;;;2.40
49593;BMP280;35499;51.482;4.264;2024-01-16T02:16:22;101035.91;;;2.39
49593;BMP280;35499;51.482;4.264;2024-01-16T02:18:49;101038.38;;;2.37
49593;BMP280;35499;51.482;4.264;2024-01-16T02:21:20;101033.22;;;2.34
49593;BMP280;35499;51.482;4.264;2024-01-16T02:23:46;101031.56;;;2.33
49593;BMP280;35499;51.482;4.264;2024-01-16T02:26:14;101028.97;;;2.32
49593;BMP280;35499;51.482;4.264;2024-01-16T02:28:39;101033.19;;;2.32
49593;BMP280;35499;51.482;4.264;2024-01-16T02:31:04;101023.91;;;2.32
49593;BMP280;35499;51.482;4.264;2024-01-16T02:33:30;101023.06;;;2.32
49593;BMP280;35499;51.482;4.264;2024-01-16T02:35:55;101023.88;;;2.31
49593;BMP280;35499;51.482;4.264;2024-01-16T02:38:20;101033.19;;;2.32
49593;BMP280;35499;51.482;4.264;2024-01-16T02:40:46;101025.59;;;2.32
49593;BMP280;35499;51.482;4.264;2024-01-16T02:43:11;101026.41;;;2.31
49593;BMP280;35499;51.482;4.264;2024-01-16T02:45:36;101032.31;;;2.31
49593;BMP280;35499;51.482;4.264;2024-01-16T02:48:02;101023.91;;;2.32
49593;BMP280;35499;51.482;4.264;2024-01-16T02:50:28;101039.97;;;2.32
49593;BMP280;35499;51.482;4.264;2024-01-16T02:52:53;101038.31;;;2.34
49593;BMP280;35499;51.482;4.264;2024-01-16T02:55:19;101034.09;;;2.35
49593;BMP280;35499;51.482;4.264;2024-01-16T02:57:44;101023.97;;;2.35
49593;BMP280;35499;51.482;4.264;2024-01-16T03:00:10;101025.63;;;2.33
49593;BMP280;35499;51.482;4.264;2024-01-16T03:02:36;101029.84;;;2.32
49593;BMP280;35499;51.482;4.264;2024-01-16T03:05:05;101027.25;;;2.31
49593;BMP280;35499;51.482;4.264;2024-01-16T03:07:30;101034.00;;;2.31
49593;BMP280;35499;51.482;4.264;2024-01-16T03:09:56;101028.94;;;2.29
49593;BMP280;35499;51.482;4.264;2024-01-16T03:12:21;101033.91;;;2.26
49593;BMP280;35499;51.482;4.264;2024-01-16T03:14:47;101033.78;;;2.20
49593;BMP280;35499;51.482;4.264;2024-01-16T03:17:12;101035.41;;;2.17
49593;BMP280;35499;51.482;4.264;2024-01-16T03:19:37;101031.91;;;2.12
49593;BMP280;35499;51.482;4.264;2024-01-16T03:22:03;101026.69;;;2.06
49593;BMP280;35499;51.482;4.264;2024-01-16T03:24:29;101027.47;;;2.02
49593;BMP280;35499;51.482;4.264;2024-01-16T03:26:54;101023.97;;;1.97
49593;BMP280;35499;51.482;4.264;2024-01-16T03:29:19;101021.34;;;1.93
49593;BMP280;35499;51.482;4.264;2024-01-16T03:31:45;101026.31;;;1.89
49593;BMP280;35499;51.482;4.264;2024-01-16T03:34:10;101023.63;;;1.83
49593;BMP280;35499;51.482;4.264;2024-01-16T03:36:36;101017.63;;;1.78
49593;BMP280;35499;51.482;4.264;2024-01-16T03:39:02;101022.56;;;1.74
49593;BMP280;35499;51.482;4.264;2024-01-16T03:41:27;101020.75;;;1.70
49593;BMP280;35499;51.482;4.264;2024-01-16T03:43:53;101013.06;;;1.65
49593;BMP280;35499;51.482;4.264;2024-01-16T03:46:21;101009.63;;;1.62
49593;BMP280;35499;51.482;4.264;2024-01-16T03:48:47;101007.84;;;1.60
49593;BMP280;35499;51.482;4.264;2024-01-16T03:51:12;101006.13;;;1.57
49593;BMP280;35499;51.482;4.264;2024-01-16T03:53:40;101002.69;;;1.54
49593;BMP280;35499;51.482;4.264;2024-01-16T03:56:06;101001.78;;;1.52
49593;BMP280;35499;51.482;4.264;2024-01-16T03:58:33;101001.72;;;1.49
49593;BMP280;35499;51.482;4.264;2024-01-16T04:00:58;100994.03;;;1.46
49593;BMP280;35499;51.482;4.264;2024-01-16T04:03:23;100993.94;;;1.42
49593;BMP280;35499;51.482;4.264;2024-01-16T04:05:49;100996.41;;;1.39
49593;BMP280;35499;51.482;4.264;2024-01-16T04:08:14;100990.41;;;1.35
49593;BMP280;35499;51.482;4.264;2024-01-16T04:10:39;100984.47;;;1.35
49593;BMP280;35499;51.482;4.264;2024-01-16T04:13:05;100980.22;;;1.32
49593;BMP280;35499;51.482;4.264;2024-01-16T04:15:31;100970.97;;;1.33
49593;BMP280;35499;51.482;4.264;2024-01-16T04:17:56;100971.81;;;1.33
49593;BMP280;35499;51.482;4.264;2024-01-16T04:20:22;100971.81;;;1.33
49593;BMP280;35499;51.482;4.264;2024-01-16T04:22:48;100975.22;;;1.35
49593;BMP280;35499;51.482;4.264;2024-01-16T04:25:14;100966.88;;;1.38
49593;BMP280;35499;51.482;4.264;2024-01-16T04:27:39;100964.41;;;1.41
49593;BMP280;35499;51.482;4.264;2024-01-16T04:30:05;100966.97;;;1.42
49593;BMP280;35499;51.482;4.264;2024-01-16T04:32:31;100973.75;;;1.43
49593;BMP280;35499;51.482;4.264;2024-01-16T04:34:56;100968.75;;;1.46
49593;BMP280;35499;51.482;4.264;2024-01-16T04:37:22;100970.47;;;1.47
49593;BMP280;35499;51.482;4.264;2024-01-16T04:39:47;100974.72;;;1.48
49593;BMP280;35499;51.482;4.264;2024-01-16T04:42:12;100971.31;;;1.47
49593;BMP280;35499;51.482;4.264;2024-01-16T04:44:38;100966.25;;;1.47
49593;BMP280;35499;51.482;4.264;2024-01-16T04:47:03;100967.94;;;1.47
49593;BMP280;35499;51.482;4.264;2024-01-16T04:49:29;100967.03;;;1.45
49593;BMP280;35499;51.482;4.264;2024-01-16T04:51:54;100968.75;;;1.46
49593;BMP280;35499;51.482;4.264;2024-01-16T04:54:19;100967.88;;;1.45
49593;BMP280;35499;51.482;4.264;2024-01-16T04:56:45;100961.91;;;1.42
49593;BMP280;35499;51.482;4.264;2024-01-16T04:59:10;100961.88;;;1.41
49593;BMP280;35499;51.482;4.264;2024-01-16T05:01:35;100961.00;;;1.39
49593;BMP280;35499;51.482;4.264;2024-01-16T05:04:01;100959.28;;;1.38
49593;BMP280;35499;51.482;4.264;2024-01-16T05:06:26;100959.28;;;1.38
49593;BMP280;35499;51.482;4.264;2024-01-16T05:08:51;100958.41;;;1.37
49593;BMP280;35499;51.482;4.264;2024-01-16T05:11:18;100954.97;;;1.35
49593;BMP280;35499;51.482;4.264;2024-01-16T05:13:43;100949.16;;;1.38
49593;BMP280;35499;51.482;4.264;2024-01-16T05:16:09;100958.41;;;1.37
49593;BMP280;35499;51.482;4.264;2024-01-16T05:18:34;100948.25;;;1.34
49593;BMP280;35499;51.482;4.264;2024-01-16T05:21:00;100947.44;;;1.37
49593;BMP280;35499;51.482;4.264;2024-01-16T05:23:25;100955.84;;;1.34
49593;BMP280;35499;51.482;4.264;2024-01-16T05:25:50;100943.19;;;1.34
49593;BMP280;35499;51.482;4.264;2024-01-16T05:28:17;100939.81;;;1.35
49593;BMP280;35499;51.482;4.264;2024-01-16T05:30:42;100942.34;;;1.35
49593;BMP280;35499;51.482;4.264;2024-01-16T05:33:08;100943.19;;;1.34
49593;BMP280;35499;51.482;4.264;2024-01-16T05:35:33;100947.38;;;1.34
49593;BMP280;35499;51.482;4.264;2024-01-16T05:37:59;100944.81;;;1.32
49593;BMP280;35499;51.482;4.264;2024-01-16T05:40:28;100950.63;;;1.30
49593;BMP280;35499;51.482;4.264;2024-01-16T05:42:53;100943.03;;;1.28
49593;BMP280;35499;51.482;4.264;2024-01-16T05:45:19;100937.06;;;1.26
49593;BMP280;35499;51.482;4.264;2024-01-16T05:47:44;100936.25;;;1.27
49593;BMP280;35499;51.482;4.264;2024-01-16T05:50:10;100931.22;;;1.27
49593;BMP280;35499;51.482;4.264;2024-01-16T05:52:35;100934.63;;;1.29
49593;BMP280;35499;51.482;4.264;2024-01-16T05:55:01;100930.41;;;1.30
49593;BMP280;35499;51.482;4.264;2024-01-16T05:57:28;100923.66;;;1.29
49593;BMP280;35499;51.482;4.264;2024-01-16T05:59:53;100919.38;;;1.26
49593;BMP280;35499;51.482;4.264;2024-01-16T06:02:19;100921.03;;;1.26
49593;BMP280;35499;51.482;4.264;2024-01-16T06:04:44;100918.44;;;1.23
49593;BMP280;35499;51.482;4.264;2024-01-16T06:07:11;100924.38;;;1.24
49593;BMP280;35499;51.482;4.264;2024-01-16T06:09:39;100920.13;;;1.23
49593;BMP280;35499;51.482;4.264;2024-01-16T06:12:08;100928.56;;;1.23
49593;BMP280;35499;51.482;4.264;2024-01-16T06:14:34;100929.44;;;1.24
49593;BMP280;35499;51.482;4.264;2024-01-16T06:17:00;100925.22;;;1.24
49593;BMP280;35499;51.482;4.264;2024-01-16T06:19:25;100931.97;;;1.25
49593;BMP280;35499;51.482;4.264;2024-01-16T06:21:50;100927.75;;;1.24
49593;BMP280;35499;51.482;4.264;2024-01-16T06:24:16;100926.09;;;1.25
49593;BMP280;35499;51.482;4.264;2024-01-16T06:26:41;100928.63;;;1.25
49593;BMP280;35499;51.482;4.264;2024-01-16T06:29:07;100929.44;;;1.24
49593;BMP280;35499;51.482;4.264;2024-01-16T06:31:33;100932.78;;;1.23
49593;BMP280;35499;51.482;4.264;2024-01-16T06:33:58;100937.81;;;1.23
49593;BMP280;35499;51.482;4.264;2024-01-16T06:36:23;100929.34;;;1.21
49593;BMP280;35499;51.482;4.264;2024-01-16T06:38:48;100932.78;;;1.23
49593;BMP280;35499;51.482;4.264;2024-01-16T06:41:14;100934.41;;;1.21
49593;BMP280;35499;51.482;4.264;2024-01-16T06:43:39;100932.69;;;1.20
49593;BMP280;35499;51.482;4.264;2024-01-16T06:46:04;100937.72;;;1.20
49593;BMP280;35499;51.482;4.264;2024-01-16T06:48:30;100944.50;;;1.21
49593;BMP280;35499;51.482;4.264;2024-01-16T06:50:56;100951.22;;;1.19
49593;BMP280;35499;51.482;4.264;2024-01-16T06:53:21;100945.31;;;1.20
49593;BMP280;35499;51.482;4.264;2024-01-16T06:55:48;100936.13;;;1.22
49593;BMP280;35499;51.482;4.264;2024-01-16T06:58:14;100940.34;;;1.23
49593;BMP280;35499;51.482;4.264;2024-01-16T07:00:39;100953.84;;;1.23
49593;BMP280;35499;51.482;4.264;2024-01-16T07:03:06;100953.00;;;1.23
49593;BMP280;35499;51.482;4.264;2024-01-16T07:05:32;100954.59;;;1.19
49593;BMP280;35499;51.482;4.264;2024-01-16T07:07:57;100951.22;;;1.19
49593;BMP280;35499;51.482;4.264;2024-01-16T07:10:23;100949.50;;;1.18
49593;BMP280;35499;51.482;4.264;2024-01-16T07:12:49;100951.22;;;1.19
49593;BMP280;35499;51.482;4.264;2024-01-16T07:15:16;100946.97;;;1.18
49593;BMP280;35499;51.482;4.264;2024-01-16T07:17:42;100953.75;;;1.19
49593;BMP280;35499;51.482;4.264;2024-01-16T07:20:07;100946.97;;;1.18
49593;BMP280;35499;51.482;4.264;2024-01-16T07:22:33;100949.50;;;1.18
49593;BMP280;35499;51.482;4.264;2024-01-16T07:24:59;100956.34;;;1.22
49593;BMP280;35499;51.482;4.264;2024-01-16T07:27:25;100961.41;;;1.22
49593;BMP280;35499;51.482;4.264;2024-01-16T07:29:50;100960.53;;;1.21
49593;BMP280;35499;51.482;4.264;2024-01-16T07:32:15;100960.59;;;1.23
49593;BMP280;35499;51.482;4.264;2024-01-16T07:34:41;100960.63;;;1.24
49593;BMP280;35499;51.482;4.264;2024-01-16T07:37:06;100949.66;;;1.24
49593;BMP280;35499;51.482;4.264;2024-01-16T07:39:32;100955.56;;;1.24
49593;BMP280;35499;51.482;4.264;2024-01-16T07:41:57;100963.16;;;1.25
49593;BMP280;35499;51.482;4.264;2024-01-16T07:44:22;100978.44;;;1.28
49593;BMP280;35499;51.482;4.264;2024-01-16T07:46:48;100988.63;;;1.31
49593;BMP280;35499;51.482;4.264;2024-01-16T07:49:13;100980.22;;;1.32
49593;BMP280;35499;51.482;4.264;2024-01-16T07:51:38;100977.72;;;1.34
49593;BMP280;35499;51.482;4.264;2024-01-16T07:54:06;100974.34;;;1.35
49593;BMP280;35499;51.482;4.264;2024-01-16T07:56:32;100982.00;;;1.36
49593;BMP280;35499;51.482;4.264;2024-01-16T07:58:57;100982.91;;;1.38
49593;BMP280;35499;51.482;4.264;2024-01-16T08:01:22;100980.38;;;1.38
49593;BMP280;35499;51.482;4.264;2024-01-16T08:03:47;100987.97;;;1.38
49593;BMP280;35499;51.482;4.264;2024-01-16T08:06:13;100977.84;;;1.38
49593;BMP280;35499;51.482;4.264;2024-01-16T08:08:38;100996.34;;;1.37
49593;BMP280;35499;51.482;4.264;2024-01-16T08:11:04;100994.63;;;1.36
49593;BMP280;35499;51.482;4.264;2024-01-16T08:13:29;101001.38;;;1.36
49593;BMP280;35499;51.482;4.264;2024-01-16T08:15:54;100992.06;;;1.35
49593;BMP280;35499;51.482;4.264;2024-01-16T08:18:20;100989.53;;;1.33
49593;BMP280;35499;51.482;4.264;2024-01-16T08:20:45;100990.34;;;1.32
49593;BMP280;35499;51.482;4.264;2024-01-16T08:23:10;100990.34;;;1.32
49593;BMP280;35499;51.482;4.264;2024-01-16T08:25:35;100991.25;;;1.34
49593;BMP280;35499;51.482;4.264;2024-01-16T08:28:01;100988.72;;;1.34
49593;BMP280;35499;51.482;4.264;2024-01-16T08:30:26;100983.66;;;1.36
49593;BMP280;35499;51.482;4.264;2024-01-16T08:32:51;100981.19;;;1.37
49593;BMP280;35499;51.482;4.264;2024-01-16T08:35:17;100982.03;;;1.38
49593;BMP280;35499;51.482;4.264;2024-01-16T08:37:42;100983.78;;;1.40
49593;BMP280;35499;51.482;4.264;2024-01-16T08:40:08;100975.47;;;1.44
49593;BMP280;35499;51.482;4.264;2024-01-16T08:42:33;100979.75;;;1.48
49593;BMP280;35499;51.482;4.264;2024-01-16T08:44:58;100984.94;;;1.52
49593;BMP280;35499;51.482;4.264;2024-01-16T08:47:24;100995.09;;;1.55
49593;BMP280;35499;51.482;4.264;2024-01-16T08:49:49;100996.06;;;1.59
49593;BMP280;35499;51.482;4.264;2024-01-16T08:52:15;100989.34;;;1.60
49593;BMP280;35499;51.482;4.264;2024-01-16T08:54:40;100989.44;;;1.65
49593;BMP280;35499;51.482;4.264;2024-01-16T08:57:06;100983.59;;;1.67
49593;BMP280;35499;51.482;4.264;2024-01-16T08:59:31;100982.00;;;1.71
49593;BMP280;35499;51.482;4.264;2024-01-16T09:01:57;100969.47;;;1.77
49593;BMP280;35499;51.482;4.264;2024-01-16T09:04:22;100957.78;;;1.81
49593;BMP280;35499;51.482;4.264;2024-01-16T09:06:48;100962.13;;;1.87
49593;BMP280;35499;51.482;4.264;2024-01-16T09:09:13;100967.38;;;1.94
49593;BMP280;35499;51.482;4.264;2024-01-16T09:11:40;100976.72;;;1.99
49593;BMP280;35499;51.482;4.264;2024-01-16T09:14:06;100973.53;;;2.06
49593;BMP280;35499;51.482;4.264;2024-01-16T09:16:31;100982.97;;;2.14
49593;BMP280;35499;51.482;4.264;2024-01-16T09:18:56;100983.97;;;2.21
49593;BMP280;35499;51.482;4.264;2024-01-16T09:21:22;100980.75;;;2.28
49593;BMP280;35499;51.482;4.264;2024-01-16T09:23:47;100982.69;;;2.39
49593;BMP280;35499;51.482;4.264;2024-01-16T09:26:12;100972.75;;;2.49
49593;BMP280;35499;51.482;4.264;2024-01-16T09:28:38;100972.94;;;2.59
49593;BMP280;35499;51.482;4.264;2024-01-16T09:31:05;100974.97;;;2.76
49593;BMP280;35499;51.482;4.264;2024-01-16T09:33:31;100970.41;;;3.04
49593;BMP280;35499;51.482;4.264;2024-01-16T09:35:56;100971.16;;;3.46
49593;BMP280;35499;51.482;4.264;2024-01-16T09:38:21;100965.09;;;3.92
49593;BMP280;35499;51.482;4.264;2024-01-16T09:40:47;100955.50;;;4.33
49593;BMP280;35499;51.482;4.264;2024-01-16T09:43:12;100952.50;;;4.69
49593;BMP280;35499;51.482;4.264;2024-01-16T09:45:38;100952.84;;;4.98
49593;BMP280;35499;51.482;4.264;2024-01-16T09:48:05;100948.09;;;5.36
49593;BMP280;35499;51.482;4.264;2024-01-16T09:50:31;100940.91;;;5.99
49593;BMP280;35499;51.482;4.264;2024-01-16T09:52:56;100942.06;;;6.66
49593;BMP280;35499;51.482;4.264;2024-01-16T09:55:22;100931.13;;;7.42
49593;BMP280;35499;51.482;4.264;2024-01-16T09:57:52;100927.66;;;8.00
49593;BMP280;35499;51.482;4.264;2024-01-16T10:04:34;100942.13;;;7.83
49593;BMP280;35499;51.482;4.264;2024-01-16T10:07:01;100928.53;;;7.49
49593;BMP280;35499;51.482;4.264;2024-01-16T10:09:26;100936.16;;;6.86
49593;BMP280;35499;51.482;4.264;2024-01-16T10:11:52;100945.28;;;6.17
49593;BMP280;35499;51.482;4.264;2024-01-16T10:14:18;100942.91;;;6.57
49593;BMP280;35499;51.482;4.264;2024-01-16T10:16:57;100937.06;;;7.36
49593;BMP280;35499;51.482;4.264;2024-01-16T10:19:28;100939.53;;;8.12
49593;BMP280;35499;51.482;4.264;2024-01-16T10:22:01;100933.19;;;8.92
49593;BMP280;35499;51.482;4.264;2024-01-16T10:24:27;100917.41;;;9.47
49593;BMP280;35499;51.482;4.264;2024-01-16T10:27:01;100912.88;;;9.74
49593;BMP280;35499;51.482;4.264;2024-01-16T10:29:31;100914.16;;;10.16
49593;BMP280;35499;51.482;4.264;2024-01-16T10:31:58;100913.03;;;10.36
49593;BMP280;35499;51.482;4.264;2024-01-16T10:34:24;100926.41;;;10.63
49593;BMP280;35499;51.482;4.264;2024-01-16T10:36:51;100910.63;;;10.88
49593;BMP280;35499;51.482;4.264;2024-01-16T10:39:17;100905.09;;;11.15
49593;BMP280;35499;51.482;4.264;2024-01-16T10:41:53;100901.00;;;11.56
49593;BMP280;35499;51.482;4.264;2024-01-16T10:44:19;100896.81;;;11.50
49593;BMP280;35499;51.482;4.264;2024-01-16T10:46:44;100891.72;;;11.47
49593;BMP280;35499;51.482;4.264;2024-01-16T10:49:09;100886.44;;;11.03
49593;BMP280;35499;51.482;4.264;2024-01-16T10:51:35;100887.91;;;11.16
49593;BMP280;35499;51.482;4.264;2024-01-16T10:54:03;100886.63;;;11.45
49593;BMP280;35499;51.482;4.264;2024-01-16T10:56:31;100873.41;;;11.65
49593;BMP280;35499;51.482;4.264;2024-01-16T10:59:06;100872.59;;;11.62
49593;BMP280;35499;51.482;4.264;2024-01-16T11:01:35;100878.22;;;11.81
49593;BMP280;35499;51.482;4.264;2024-01-16T11:04:01;100868.56;;;11.93
49593;BMP280;35499;51.482;4.264;2024-01-16T11:06:27;100861.50;;;12.02
49593;BMP280;35499;51.482;4.264;2024-01-16T11:08:54;100870.31;;;12.33
49593;BMP280;35499;51.482;4.264;2024-01-16T11:11:20;100858.72;;;12.52
49593;BMP280;35499;51.482;4.264;2024-01-16T11:13:46;100863.56;;;12.69
49593;BMP280;35499;51.482;4.264;2024-01-16T11:16:11;100860.00;;;12.74
49593;BMP280;35499;51.482;4.264;2024-01-16T11:18:37;100866.69;;;12.81
49593;BMP280;35499;51.482;4.264;2024-01-16T11:21:05;100865.81;;;12.82
49593;BMP280;35499;51.482;4.264;2024-01-16T11:23:32;100869.75;;;12.59
49593;BMP280;35499;51.482;4.264;2024-01-16T11:25:57;100870.13;;;12.41
49593;BMP280;35499;51.482;4.264;2024-01-16T11:28:27;100860.59;;;12.46
49593;BMP280;35499;51.482;4.264;2024-01-16T11:30:55;100864.44;;;12.26
49593;BMP280;35499;51.482;4.264;2024-01-16T11:35:58;100876.94;;;11.60
49593;BMP280;35499;51.482;4.264;2024-01-16T11:38:24;100869.78;;;11.27
49593;BMP280;35499;51.482;4.264;2024-01-16T11:40:52;100869.81;;;11.23
49593;BMP280;35499;51.482;4.264;2024-01-16T11:46:03;100857.25;;;12.01
49593;BMP280;35499;51.482;4.264;2024-01-16T11:48:29;100841.00;;;12.39
49593;BMP280;35499;51.482;4.264;2024-01-16T11:50:54;100838.94;;;12.93
49593;BMP280;35499;51.482;4.264;2024-01-16T11:53:46;100835.81;;;13.15
49593;BMP280;35499;51.482;4.264;2024-01-16T11:56:37;100825.44;;;13.16
49593;BMP280;35499;51.482;4.264;2024-01-16T12:01:32;100821.88;;;13.22
49593;BMP280;35499;51.482;4.264;2024-01-16T12:04:03;100818.59;;;13.15
49593;BMP280;35499;51.482;4.264;2024-01-16T12:06:29;100814.25;;;13.17
49593;BMP280;35499;51.482;4.264;2024-01-16T12:09:10;100816.94;;;13.13
49593;BMP280;35499;51.482;4.264;2024-01-16T12:11:36;100811.41;;;12.95
49593;BMP280;35499;51.482;4.264;2024-01-16T12:14:01;100802.34;;;12.78
49593;BMP280;35499;51.482;4.264;2024-01-16T12:16:27;100805.31;;;12.60
49593;BMP280;35499;51.482;4.264;2024-01-16T12:19:06;100803.34;;;12.72
49593;BMP280;35499;51.482;4.264;2024-01-16T12:21:34;100799.53;;;12.88
49593;BMP280;35499;51.482;4.264;2024-01-16T12:23:59;100807.13;;;12.55
49593;BMP280;35499;51.482;4.264;2024-01-16T12:26:25;100816.88;;;12.03
49593;BMP280;35499;51.482;4.264;2024-01-16T12:28:53;100806.38;;;11.72
49593;BMP280;35499;51.482;4.264;2024-01-16T12:31:19;100805.97;;;11.93
49593;BMP280;35499;51.482;4.264;2024-01-16T12:33:44;100804.03;;;12.03
49593;BMP280;35499;51.482;4.264;2024-01-16T12:36:09;100796.81;;;12.20
49593;BMP280;35499;51.482;4.264;2024-01-16T12:38:36;100789.50;;;12.39
49593;BMP280;35499;51.482;4.264;2024-01-16T12:41:02;100785.88;;;12.46
49593;BMP280;35499;51.482;4.264;2024-01-16T12:43:31;100788.47;;;12.46
49593;BMP280;35499;51.482;4.264;2024-01-16T12:45:57;100779.44;;;12.66
49593;BMP280;35499;51.482;4.264;2024-01-16T12:48:23;100773.06;;;12.80
49593;BMP280;35499;51.482;4.264;2024-01-16T12:50:49;100772.28;;;12.78
49593;BMP280;35499;51.482;4.264;2024-01-16T12:53:14;100769.75;;;12.75
49593;BMP280;35499;51.482;4.264;2024-01-16T12:55:42;100766.91;;;12.87
49593;BMP280;35499;51.482;4.264;2024-01-16T12:58:21;100764.31;;;12.87
49593;BMP280;35499;51.482;4.264;2024-01-16T13:00:50;100758.88;;;12.99
49593;BMP280;35499;51.482;4.264;2024-01-16T13:03:17;100751.63;;;13.12
49593;BMP280;35499;51.482;4.264;2024-01-16T13:05:43;100755.34;;;13.03
49593;BMP280;35499;51.482;4.264;2024-01-16T13:08:09;100750.78;;;13.12
49593;BMP280;35499;51.482;4.264;2024-01-16T13:10:35;100753.16;;;12.87
49593;BMP280;35499;51.482;4.264;2024-01-16T13:13:13;100752.28;;;12.51
49593;BMP280;35499;51.482;4.264;2024-01-16T13:15:39;100756.16;;;12.34
49593;BMP280;35499;51.482;4.264;2024-01-16T13:18:04;100739.00;;;12.33
49593;BMP280;35499;51.482;4.264;2024-01-16T13:20:30;100745.84;;;12.34
49593;BMP280;35499;51.482;4.264;2024-01-16T13:22:56;100750.84;;;12.02
49593;BMP280;35499;51.482;4.264;2024-01-16T13:25:21;100747.84;;;11.83
49593;BMP280;35499;51.482;4.264;2024-01-16T13:27:46;100745.56;;;11.70
49593;BMP280;35499;51.482;4.264;2024-01-16T13:30:12;100743.78;;;11.72
49593;BMP280;35499;51.482;4.264;2024-01-16T13:32:37;100740.22;;;11.79
49593;BMP280;35499;51.482;4.264;2024-01-16T13:35:03;100742.69;;;11.83
49593;BMP280;35499;51.482;4.264;2024-01-16T13:37:32;100741.81;;;11.84
49593;BMP280;35499;51.482;4.264;2024-01-16T13:39:57;100736.66;;;11.44
49593;BMP280;35499;51.482;4.264;2024-01-16T13:42:23;100736.81;;;10.87
49593;BMP280;35499;51.482;4.264;2024-01-16T13:44:48;100738.72;;;10.21
49593;BMP280;35499;51.482;4.264;2024-01-16T13:47:15;100744.75;;;9.54
49593;BMP280;35499;51.482;4.264;2024-01-16T13:49:41;100748.09;;;8.78
49593;BMP280;35499;51.482;4.264;2024-01-16T13:52:06;100735.69;;;8.30
49593;BMP280;35499;51.482;4.264;2024-01-16T13:54:31;100744.44;;;7.84
49593;BMP280;35499;51.482;4.264;2024-01-16T13:56:56;100752.31;;;7.36
49593;BMP280;35499;51.482;4.264;2024-01-16T13:59:22;100746.44;;;6.99
49593;BMP280;35499;51.482;4.264;2024-01-16T14:01:47;100743.06;;;6.75
49593;BMP280;35499;51.482;4.264;2024-01-16T14:04:12;100735.41;;;6.50
49593;BMP280;35499;51.482;4.264;2024-01-16T14:06:38;100733.69;;;6.29
49593;BMP280;35499;51.482;4.264;2024-01-16T14:09:03;100720.06;;;6.08
49593;BMP280;35499;51.482;4.264;2024-01-16T14:11:29;100726.81;;;5.84